Time;durP1;ratioP1;P1;durP2;ratioP2;P2;SDS_P1;SDS_P2;PMS_P1;PMS_P2;Temp;Humidity;BMP_temperature;BMP_pressure;BME280_temperature;BME280_humidity;BME280_pressure;Samples;Min_cycle;Max_cycle;Signal;HPM_P1;HPM_P2
2023/07/13 00:01:55;;;;;;;3.25;1.50;;;;;;;24.26;100.00;96128.06;5028220;28;20021;-80
2023/07/13 00:04:24;;;;;;;3.50;1.58;;;;;;;24.07;100.00;96124.84;5011191;28;20026;-79
2023/07/13 00:06:51;;;;;;;3.95;1.63;;;;;;;24.02;100.00;96123.97;5013692;28;20096;-79
2023/07/13 00:09:18;;;;;;;3.40;1.48;;;;;;;23.93;100.00;96113.63;5011829;28;20464;-79
2023/07/13 00:11:47;;;;;;;3.17;1.58;;;;;;;23.76;100.00;96104.78;5032571;28;20025;-79
2023/07/13 00:14:15;;;;;;;2.92;1.58;;;;;;;23.79;100.00;96098.13;5013587;28;20465;-79
2023/07/13 00:16:43;;;;;;;3.22;1.50;;;;;;;23.72;100.00;96095.59;5020634;28;20079;-81
2023/07/13 00:19:11;;;;;;;3.33;1.70;;;;;;;23.73;100.00;96095.34;5020940;28;20201;-80
2023/07/13 00:21:37;;;;;;;3.80;1.23;;;;;;;23.82;100.00;96103.00;5008528;28;20044;-80
2023/07/13 00:24:03;;;;;;;3.22;1.52;;;;;;;23.68;100.00;96111.38;5006999;28;20025;-80
2023/07/13 00:26:29;;;;;;;3.47;1.92;;;;;;;23.70;100.00;96103.06;5029085;28;20440;-80
2023/07/13 00:28:54;;;;;;;2.72;1.42;;;;;;;23.58;100.00;96108.53;5019769;28;20021;-80
2023/07/13 00:31:21;;;;;;;3.85;1.83;;;;;;;23.30;100.00;96115.56;5016608;28;20022;-80
2023/07/13 00:33:46;;;;;;;3.63;1.42;;;;;;;23.38;100.00;96122.41;5009959;28;20074;-80
2023/07/13 00:36:14;;;;;;;2.80;1.50;;;;;;;23.61;100.00;96121.47;5015531;28;20025;-80
2023/07/13 00:38:39;;;;;;;3.75;1.50;;;;;;;23.45;100.00;96127.63;5011755;28;20040;-80
2023/07/13 00:41:07;;;;;;;3.78;1.60;;;;;;;23.41;100.00;96121.13;5032011;28;20028;-80
2023/07/13 00:43:32;;;;;;;11.18;1.73;;;;;;;23.29;100.00;96129.22;5018798;28;20029;-80
2023/07/13 00:45:58;;;;;;;6.07;1.92;;;;;;;23.27;100.00;96129.50;5023882;28;20025;-80
2023/07/13 00:48:28;;;;;;;3.00;1.40;;;;;;;23.17;100.00;96137.34;5013625;28;20108;-79
2023/07/13 00:50:57;;;;;;;3.40;1.60;;;;;;;23.24;100.00;96129.97;5013619;28;20108;-80
2023/07/13 00:53:26;;;;;;;3.72;1.83;;;;;;;23.16;100.00;96140.25;5025534;28;20021;-80
2023/07/13 00:55:54;;;;;;;2.50;1.58;;;;;;;23.30;100.00;96142.38;5026468;28;20032;-80
2023/07/13 00:58:22;;;;;;;3.67;1.30;;;;;;;23.28;100.00;96141.84;5025706;28;20391;-80
2023/07/13 01:00:49;;;;;;;5.78;1.50;;;;;;;23.17;100.00;96145.41;5001857;28;20021;-80
2023/07/13 01:03:15;;;;;;;3.40;1.70;;;;;;;23.16;100.00;96149.13;5024258;28;20107;-80
2023/07/13 01:05:43;;;;;;;3.08;1.52;;;;;;;23.35;100.00;96148.94;5024039;28;20036;-80
2023/07/13 01:08:09;;;;;;;3.45;1.50;;;;;;;23.26;100.00;96146.63;5021021;28;20029;-80
2023/07/13 01:10:44;;;;;;;3.65;1.85;;;;;;;23.00;100.00;96144.53;5010849;28;20085;-80
2023/07/13 01:13:10;;;;;;;4.85;1.70;;;;;;;22.84;100.00;96146.09;5014574;28;20036;-80
2023/07/13 01:15:40;;;;;;;2.38;1.40;;;;;;;22.89;100.00;96146.19;5018815;28;20383;-80
2023/07/13 01:18:09;;;;;;;3.35;1.30;;;;;;;22.99;100.00;96137.53;5020139;28;20526;-80
2023/07/13 01:20:35;;;;;;;3.08;1.40;;;;;;;23.11;100.00;96137.50;5002824;28;20056;-80
2023/07/13 01:23:04;;;;;;;5.65;1.70;;;;;;;22.86;100.00;96156.56;5015630;28;20033;-80
2023/07/13 01:25:29;;;;;;;5.32;2.13;;;;;;;22.84;100.00;96154.13;5025095;28;20036;-80
2023/07/13 01:27:55;;;;;;;4.43;2.25;;;;;;;23.18;100.00;96154.25;5034539;28;20068;-80
2023/07/13 01:30:20;;;;;;;3.97;1.75;;;;;;;23.14;100.00;96163.81;5010754;28;20029;-80
2023/07/13 01:32:46;;;;;;;5.95;1.30;;;;;;;23.25;100.00;96160.28;5028123;28;20434;-80
2023/07/13 01:35:12;;;;;;;4.93;2.00;;;;;;;23.10;100.00;96163.50;5016354;28;20121;-80
2023/07/13 01:37:38;;;;;;;4.85;1.67;;;;;;;23.23;100.00;96160.50;5034362;28;20021;-80
2023/07/13 01:40:04;;;;;;;4.72;1.77;;;;;;;23.11;100.00;96159.78;5023897;28;20025;-80
2023/07/13 01:42:30;;;;;;;6.97;2.05;;;;;;;23.06;100.00;96157.78;5013738;28;20016;-80
2023/07/13 01:44:55;;;;;;;4.25;1.42;;;;;;;23.26;100.00;96157.34;5017340;28;20368;-80
2023/07/13 01:47:23;;;;;;;5.30;1.52;;;;;;;22.99;100.00;96167.84;5024250;28;20028;-80
2023/07/13 01:49:50;;;;;;;5.80;1.73;;;;;;;23.02;100.00;96171.94;5016059;28;20036;-80
2023/07/13 01:52:16;;;;;;;4.88;2.05;;;;;;;22.95;100.00;96171.25;5014674;28;20021;-80
2023/07/13 01:54:41;;;;;;;3.42;1.48;;;;;;;23.16;100.00;96173.25;5014094;28;20064;-80
2023/07/13 01:57:08;;;;;;;7.68;1.40;;;;;;;23.12;100.00;96172.13;5043378;28;20033;-80
2023/07/13 01:59:34;;;;;;;2.92;1.42;;;;;;;23.19;100.00;96170.09;5030326;28;20029;-80
2023/07/13 02:01:59;;;;;;;3.95;1.60;;;;;;;23.09;100.00;96172.59;5003221;28;20008;-79
2023/07/13 02:04:25;;;;;;;5.32;1.45;;;;;;;23.00;100.00;96166.81;5005808;28;20044;-80
2023/07/13 02:06:51;;;;;;;3.67;1.52;;;;;;;22.81;100.00;96170.69;5015451;28;20024;-79
2023/07/13 02:09:16;;;;;;;3.60;1.40;;;;;;;22.74;100.00;96170.84;5025883;28;20020;-80
2023/07/13 02:11:42;;;;;;;4.93;1.45;;;;;;;22.58;100.00;96166.22;5024887;28;20438;-80
2023/07/13 02:14:08;;;;;;;6.05;1.50;;;;;;;22.81;100.00;96170.69;5014740;28;20380;-80
2023/07/13 02:16:33;;;;;;;7.47;1.40;;;;;;;22.40;100.00;96161.81;5020168;28;20591;-80
2023/07/13 02:19:00;;;;;;;4.75;1.60;;;;;;;22.55;100.00;96159.44;4997923;28;20371;-79
2023/07/13 02:21:26;;;;;;;5.70;1.52;;;;;;;22.47;100.00;96169.75;5011445;28;20035;-79
2023/07/13 02:23:54;;;;;;;6.65;1.50;;;;;;;22.24;100.00;96171.38;5021199;28;20029;-80
2023/07/13 02:26:20;;;;;;;5.90;1.30;;;;;;;22.22;100.00;96170.78;5020599;28;20384;-80
2023/07/13 02:28:47;;;;;;;5.05;1.30;;;;;;;22.22;100.00;96169.97;5017903;28;20024;-80
2023/07/13 02:31:15;;;;;;;10.30;1.95;;;;;;;22.18;100.00;96172.31;5007499;28;20025;-79
2023/07/13 02:33:41;;;;;;;3.03;1.33;;;;;;;22.05;100.00;96172.53;5018505;28;20029;-80
2023/07/13 02:36:07;;;;;;;5.68;1.60;;;;;;;22.06;100.00;96174.94;5026958;28;20040;-80
2023/07/13 02:38:49;;;;;;;6.80;1.77;;;;;;;21.73;100.00;96175.53;5017413;28;20032;-80
2023/07/13 02:41:15;;;;;;;6.07;1.80;;;;;;;21.79;100.00;96181.81;5014537;28;20112;-80
2023/07/13 02:43:40;;;;;;;4.18;1.33;;;;;;;21.62;100.00;96176.31;5021660;28;20452;-80
2023/07/13 02:46:08;;;;;;;4.78;1.70;;;;;;;21.68;100.00;96175.41;5016792;28;20052;-80
2023/07/13 02:48:38;;;;;;;4.38;1.75;;;;;;;21.82;100.00;96176.81;5009826;28;20479;-80
2023/07/13 02:51:05;;;;;;;3.45;1.27;;;;;;;21.80;100.00;96173.56;5032442;28;20033;-80
2023/07/13 02:53:30;;;;;;;3.75;1.52;;;;;;;21.57;100.00;96170.84;5020506;28;20108;-80
2023/07/13 02:55:56;;;;;;;3.08;1.30;;;;;;;21.69;100.00;96174.34;5013741;28;20123;-80
2023/07/13 02:58:22;;;;;;;3.33;1.40;;;;;;;21.59;100.00;96176.78;5016260;28;20029;-80
2023/07/13 03:00:49;;;;;;;5.82;1.20;;;;;;;21.56;100.00;96174.56;5012732;28;20053;-80
2023/07/13 03:03:16;;;;;;;6.00;1.70;;;;;;;21.48;100.00;96170.38;5022393;28;20487;-80
2023/07/13 03:05:44;;;;;;;4.43;1.75;;;;;;;21.50;100.00;96172.81;5026186;28;20100;-80
2023/07/13 03:08:12;;;;;;;5.68;1.50;;;;;;;21.59;100.00;96176.78;5019971;28;20025;-80
2023/07/13 03:10:39;;;;;;;4.82;1.55;;;;;;;21.27;100.00;96182.38;5035865;28;20116;-80
2023/07/13 03:13:08;;;;;;;3.33;1.70;;;;;;;21.23;100.00;96180.38;5029444;28;20025;-80
2023/07/13 03:15:33;;;;;;;4.07;1.40;;;;;;;21.32;100.00;96189.72;5016196;28;20044;-80
2023/07/13 03:17:59;;;;;;;6.15;1.73;;;;;;;21.16;100.00;96180.50;5029672;28;20025;-79
2023/07/13 03:20:25;;;;;;;4.78;1.55;;;;;;;21.31;100.00;96185.41;5017940;28;20041;-80
2023/07/13 03:22:50;;;;;;;3.50;1.30;;;;;;;21.23;100.00;96183.88;5014878;28;20025;-79
2023/07/13 03:25:17;;;;;;;3.95;1.23;;;;;;;21.23;100.00;96186.56;5015299;28;20028;-80
2023/07/13 03:27:43;;;;;;;5.53;1.80;;;;;;;21.29;100.00;96196.31;5021111;28;20075;-79
2023/07/13 03:30:41;;;;;;;3.40;1.27;;;;;;;21.10;100.00;96200.09;5006066;28;20025;-80
2023/07/13 03:33:06;;;;;;;4.95;1.65;;;;;;;21.00;100.00;96205.19;5018906;28;20086;-80
2023/07/13 03:35:34;;;;;;;8.20;1.80;;;;;;;20.96;100.00;96207.50;5027967;28;20036;-80
2023/07/13 03:38:01;;;;;;;5.78;1.88;;;;;;;20.92;100.00;96207.13;5023024;28;20633;-79
2023/07/13 03:40:28;;;;;;;4.13;1.50;;;;;;;21.05;100.00;96208.78;5027655;28;20536;-80
2023/07/13 03:42:54;;;;;;;4.03;1.45;;;;;;;21.11;100.00;96209.75;5021427;28;20048;-80
2023/07/13 03:45:20;;;;;;;5.32;1.50;;;;;;;20.89;100.00;96207.56;5020743;28;20036;-80
2023/07/13 03:47:46;;;;;;;5.40;1.40;;;;;;;20.80;100.00;96208.91;5009702;28;20017;-80
2023/07/13 03:50:11;;;;;;;4.75;1.60;;;;;;;20.90;100.00;96216.41;5013205;28;20029;-79
2023/07/13 03:52:37;;;;;;;4.82;1.42;;;;;;;20.69;100.00;96220.34;5033579;28;20383;-80
2023/07/13 03:55:03;;;;;;;5.07;1.55;;;;;;;20.83;100.00;96216.50;5036676;28;20074;-80
2023/07/13 03:57:29;;;;;;;3.30;1.38;;;;;;;20.96;100.00;96220.88;5022275;28;20029;-81
2023/07/13 03:59:56;;;;;;;5.85;1.90;;;;;;;21.06;100.00;96218.47;5005815;28;20498;-80
2023/07/13 04:02:21;;;;;;;5.63;1.60;;;;;;;20.98;100.00;96220.63;5023824;28;20037;-80
2023/07/13 04:04:47;;;;;;;3.65;1.52;;;;;;;21.10;100.00;96224.19;5021255;28;20071;-80
2023/07/13 04:07:13;;;;;;;5.70;1.80;;;;;;;21.21;100.00;96219.91;5020410;28;20029;-80
2023/07/13 04:09:39;;;;;;;4.50;1.58;;;;;;;20.97;100.00;96229.69;5017059;28;20024;-79
2023/07/13 04:12:05;;;;;;;5.32;1.92;;;;;;;21.01;100.00;96229.00;5030184;28;20030;-79
2023/07/13 04:14:30;;;;;;;4.78;1.58;;;;;;;20.70;100.00;96230.81;5020247;28;20087;-80
2023/07/13 04:16:58;;;;;;;2.90;1.60;;;;;;;20.87;100.00;96231.03;5016170;28;20048;-80
2023/07/13 04:19:24;;;;;;;4.78;1.70;;;;;;;20.90;100.00;96235.13;5048300;28;20039;-80
2023/07/13 04:21:49;;;;;;;6.97;1.80;;;;;;;20.95;100.00;96235.25;5019663;28;20116;-80
2023/07/13 04:24:15;;;;;;;5.78;2.00;;;;;;;21.27;100.00;96235.06;5021502;28;20022;-80
2023/07/13 04:26:40;;;;;;;8.75;2.05;;;;;;;21.00;100.00;96251.44;5027744;28;20079;-80
2023/07/13 04:29:07;;;;;;;5.43;1.80;;;;;;;21.14;100.00;96257.44;5015428;28;20024;-80
2023/07/13 04:31:33;;;;;;;4.53;1.60;;;;;;;20.97;100.00;96256.44;5015929;28;20407;-79
2023/07/13 04:33:58;;;;;;;4.10;1.80;;;;;;;21.04;100.00;96251.81;5014244;28;20025;-79
2023/07/13 04:36:26;;;;;;;5.88;1.70;;;;;;;21.25;100.00;96254.00;5025011;28;20059;-80
2023/07/13 04:38:53;;;;;;;4.65;1.80;;;;;;;21.40;100.00;96246.44;5019382;28;20136;-79
2023/07/13 04:41:20;;;;;;;3.15;1.52;;;;;;;21.44;100.00;96246.78;5016980;28;20021;-79
2023/07/13 04:43:46;;;;;;;5.53;1.70;;;;;;;21.73;100.00;96245.13;5034971;28;20032;-80
2023/07/13 04:46:14;;;;;;;4.68;1.83;;;;;;;21.96;100.00;96255.06;5036619;28;20028;-80
2023/07/13 04:48:39;;;;;;;3.72;1.58;;;;;;;21.72;100.00;96253.38;5029581;28;20074;-79
2023/07/13 04:51:07;;;;;;;4.40;1.55;;;;;;;21.82;100.00;96261.66;5012843;28;20499;-79
2023/07/13 04:53:34;;;;;;;5.70;1.90;;;;;;;21.85;100.00;96258.53;5027109;28;20059;-80
2023/07/13 04:56:00;;;;;;;2.95;1.80;;;;;;;21.75;100.00;96256.41;5010463;28;20033;-80
2023/07/13 04:58:27;;;;;;;4.75;1.77;;;;;;;21.89;100.00;96260.50;5025298;28;20391;-80
2023/07/13 05:00:53;;;;;;;6.20;2.10;;;;;;;21.92;100.00;96259.25;5005094;28;20024;-79
2023/07/13 05:03:19;;;;;;;4.32;1.75;;;;;;;21.96;100.00;96254.25;5003543;28;20103;-80
2023/07/13 05:05:55;;;;;;;3.28;1.60;;;;;;;21.94;100.00;96251.00;5006661;28;20021;-79
2023/07/13 05:08:21;;;;;;;5.65;1.98;;;;;;;21.98;100.00;96250.28;5019529;28;20030;-80
2023/07/13 05:10:51;;;;;;;3.35;1.45;;;;;;;22.21;100.00;96251.41;5008994;28;20028;-79
2023/07/13 05:13:16;;;;;;;6.57;1.80;;;;;;;22.32;100.00;96254.06;5002653;28;20468;-80
2023/07/13 05:15:42;;;;;;;4.20;1.80;;;;;;;22.31;100.00;96252.44;5025114;28;20036;-80
2023/07/13 05:18:08;;;;;;;4.50;1.90;;;;;;;22.08;100.00;96250.53;5016516;28;20418;-80
2023/07/13 05:20:33;;;;;;;4.20;1.92;;;;;;;21.86;100.00;96260.16;5006775;28;20031;-79
2023/07/13 05:22:59;;;;;;;4.35;1.88;;;;;;;22.16;100.00;96259.31;5009923;28;20569;-80
2023/07/13 05:25:24;;;;;;;4.68;1.63;;;;;;;22.25;100.00;96268.63;5017897;28;20838;-79
2023/07/13 05:27:50;;;;;;;6.25;1.73;;;;;;;22.21;100.00;96264.78;5008718;28;20017;-79
2023/07/13 05:30:15;;;;;;;4.55;1.85;;;;;;;22.40;100.00;96263.66;5012567;28;20017;-79
2023/07/13 05:32:48;;;;;;;6.25;1.95;;;;;;;22.10;100.00;96271.75;5035055;28;20071;-79
2023/07/13 05:35:14;;;;;;;4.30;1.55;;;;;;;22.24;100.00;96265.16;5033011;28;20054;-80
2023/07/13 05:37:39;;;;;;;5.72;1.58;;;;;;;22.23;100.00;96263.53;5010390;28;20044;-80
2023/07/13 05:40:06;;;;;;;3.78;1.83;;;;;;;22.21;100.00;96267.47;5013497;28;20028;-80
2023/07/13 05:42:32;;;;;;;6.13;2.20;;;;;;;22.14;100.00;96270.22;5015751;28;20492;-80
2023/07/13 05:44:57;;;;;;;3.67;1.88;;;;;;;22.53;100.00;96274.09;5023054;28;20056;-79
2023/07/13 05:47:23;;;;;;;5.50;2.42;;;;;;;22.15;100.00;96281.75;5010807;28;20117;-80
2023/07/13 05:49:48;;;;;;;7.10;2.80;;;;;;;22.44;100.00;96272.03;5014409;28;20028;-79
2023/07/13 05:52:14;;;;;;;3.60;1.83;;;;;;;22.52;100.00;96277.84;5023055;28;20024;-80
2023/07/13 05:54:40;;;;;;;5.90;2.72;;;;;;;22.57;100.00;96272.59;5013115;28;20471;-81
2023/07/13 05:57:05;;;;;;;4.53;1.95;;;;;;;22.35;100.00;96274.22;5011768;28;20032;-79
2023/07/13 05:59:31;;;;;;;4.30;1.95;;;;;;;22.23;100.00;96282.28;5027950;28;20020;-80
2023/07/13 06:01:56;;;;;;;6.75;2.03;;;;;;;22.47;100.00;96276.94;5005911;28;20017;-79
2023/07/13 06:04:38;;;;;;;4.57;1.77;;;;;;;22.35;100.00;96269.69;5027082;28;20021;-79
2023/07/13 06:07:04;;;;;;;4.38;1.70;;;;;;;22.29;100.00;96275.16;5022546;28;20066;-80
2023/07/13 06:09:42;;;;;;;10.75;1.98;;;;;;;22.42;100.00;96276.78;5033556;28;20372;-80
2023/07/13 06:12:08;;;;;;;3.72;1.48;;;;;;;22.25;100.00;96274.81;5004898;28;20025;-79
2023/07/13 06:14:33;;;;;;;9.30;2.20;;;;;;;22.31;100.00;96278.44;5007843;28;20033;-79
2023/07/13 06:16:59;;;;;;;8.07;1.73;;;;;;;22.54;100.00;96283.78;5011673;28;20025;-79
2023/07/13 06:19:24;;;;;;;8.32;2.00;;;;;;;22.54;100.00;96282.97;5020707;28;20052;-79
2023/07/13 06:21:52;;;;;;;4.40;1.83;;;;;;;22.33;100.00;96287.88;5018233;28;20025;-80
2023/07/13 06:24:18;;;;;;;4.70;1.58;;;;;;;22.68;100.00;96284.38;5016329;28;20108;-80
2023/07/13 06:26:44;;;;;;;5.97;1.50;;;;;;;23.10;100.00;96291.44;5032580;28;20017;-80
2023/07/13 06:29:09;;;;;;;4.78;1.83;;;;;;;23.10;100.00;96297.63;5010393;28;20021;-80
2023/07/13 06:31:35;;;;;;;5.10;1.67;;;;;;;23.66;100.00;96289.84;5014805;28;20028;-80
2023/07/13 06:34:01;;;;;;;4.95;1.80;;;;;;;23.70;100.00;96299.88;5017258;28;20108;-80
2023/07/13 06:36:26;;;;;;;3.78;1.60;;;;;;;23.11;100.00;96303.81;5015406;28;20053;-80
2023/07/13 06:38:52;;;;;;;3.88;1.58;;;;;;;22.66;100.00;96309.78;5025054;28;20028;-80
2023/07/13 06:41:28;;;;;;;5.95;2.03;;;;;;;23.10;100.00;96307.53;5012340;28;20017;-80
2023/07/13 06:44:01;;;;;;;5.05;1.83;;;;;;;23.47;100.00;96308.00;5023429;28;20021;-80
2023/07/13 06:46:28;;;;;;;4.65;1.90;;;;;;;23.30;100.00;96316.81;5017563;28;20029;-80
2023/07/13 06:48:56;;;;;;;4.88;1.70;;;;;;;23.85;98.70;96309.31;5026227;28;20471;-80
2023/07/13 06:51:25;;;;;;;4.55;1.40;;;;;;;24.82;88.51;96303.63;5033395;28;20483;-80
2023/07/13 06:54:04;;;;;;;4.20;1.67;;;;;;;24.74;90.05;96312.09;5007545;28;20096;-80
2023/07/13 06:56:30;;;;;;;4.63;1.85;;;;;;;24.36;84.08;96310.97;5023230;28;20021;-80
2023/07/13 06:58:57;;;;;;;5.40;1.60;;;;;;;24.86;83.22;96320.09;5033974;28;20586;-80
2023/07/13 07:01:22;;;;;;;7.35;1.92;;;;;;;25.75;74.49;96325.22;5017556;28;20023;-80
2023/07/13 07:03:48;;;;;;;3.17;1.55;;;;;;;26.61;65.44;96316.34;5033801;28;20024;-80
2023/07/13 07:06:20;;;;;;;5.35;1.90;;;;;;;27.05;64.14;96318.78;5018690;28;20112;-80
2023/07/13 07:08:47;;;;;;;5.80;1.60;;;;;;;27.78;59.74;96316.16;5019017;28;20033;-80
2023/07/13 07:11:16;;;;;;;3.65;1.70;;;;;;;27.87;57.62;96319.16;5014918;28;20018;-80
2023/07/13 07:13:42;;;;;;;5.75;1.80;;;;;;;27.58;56.91;96329.59;5010575;28;20029;-80
2023/07/13 07:16:13;;;;;;;6.22;1.80;;;;;;;26.95;56.45;96330.34;5026765;28;20036;-80
2023/07/13 07:18:38;;;;;;;6.05;1.50;;;;;;;26.82;62.70;96329.97;5016901;28;20057;-81
2023/07/13 07:21:04;;;;;;;6.07;2.70;;;;;;;26.48;63.75;96331.09;5017520;28;20064;-80
2023/07/13 07:23:31;;;;;;;8.30;2.13;;;;;;;26.59;62.53;96340.06;5009283;28;20025;-80
2023/07/13 07:25:56;;;;;;;4.75;1.60;;;;;;;26.60;63.61;96332.81;5015329;28;20025;-80
2023/07/13 07:28:22;;;;;;;4.25;1.55;;;;;;;26.00;65.52;96335.50;5023637;28;20083;-80
2023/07/13 07:30:48;;;;;;;3.35;1.25;;;;;;;26.16;64.63;96336.47;5008023;28;20099;-80
2023/07/13 07:33:16;;;;;;;9.43;4.57;;;;;;;26.01;65.91;96342.50;5019576;28;20040;-82
2023/07/13 07:35:43;;;;;;;3.10;1.65;;;;;;;25.86;69.71;96348.56;5022790;28;20463;-80
2023/07/13 07:38:09;;;;;;;6.65;1.77;;;;;;;26.18;70.52;96341.59;5013915;28;20033;-80
2023/07/13 07:40:40;;;;;;;4.43;1.40;;;;;;;25.82;69.06;96346.63;5020583;28;20018;-80
2023/07/13 07:43:06;;;;;;;5.53;1.90;;;;;;;25.61;69.47;96345.56;5032282;28;20595;-80
2023/07/13 07:45:32;;;;;;;3.95;1.50;;;;;;;25.69;68.46;96347.81;5016999;28;20017;-81
2023/07/13 07:47:59;;;;;;;5.78;1.90;;;;;;;25.97;63.54;96351.38;5012936;28;20121;-80
2023/07/13 07:50:25;;;;;;;3.60;1.50;;;;;;;27.82;56.92;96349.69;5027843;28;20444;-80
2023/07/13 07:52:51;;;;;;;4.63;1.58;;;;;;;27.97;53.52;96351.63;5007539;28;20112;-81
2023/07/13 07:55:17;;;;;;;6.50;1.92;;;;;;;29.08;48.85;96354.66;5025308;28;20134;-80
2023/07/13 07:57:43;;;;;;;4.78;1.30;;;;;;;29.73;47.68;96358.25;5017622;28;20179;-80
2023/07/13 08:00:09;;;;;;;5.82;1.70;;;;;;;29.33;44.42;96357.28;5012109;28;20065;-80
2023/07/13 08:02:41;;;;;;;3.30;1.27;;;;;;;29.26;44.12;96350.53;5054302;28;20033;-80
2023/07/13 08:05:08;;;;;;;4.97;1.63;;;;;;;29.89;43.51;96348.13;5032725;28;20505;-80
2023/07/13 08:07:34;;;;;;;5.03;1.95;;;;;;;30.86;41.34;96333.09;5026881;28;20132;-80
2023/07/13 08:09:59;;;;;;;5.60;2.15;;;;;;;31.42;39.17;96335.22;5020035;28;20029;-81
2023/07/13 08:12:25;;;;;;;5.07;1.60;;;;;;;30.93;39.91;96337.09;5028442;28;20017;-81
2023/07/13 08:14:57;;;;;;;3.58;1.50;;;;;;;31.25;39.37;96346.50;5016201;28;20022;-80
2023/07/13 08:17:23;;;;;;;4.57;1.50;;;;;;;31.12;38.82;96341.78;5019301;28;20030;-81
2023/07/13 08:19:49;;;;;;;3.97;1.55;;;;;;;30.45;39.93;96346.97;5011122;28;20029;-81
2023/07/13 08:22:15;;;;;;;3.15;1.20;;;;;;;31.66;37.71;96336.00;5037267;28;20024;-81
2023/07/13 08:24:42;;;;;;;5.68;1.70;;;;;;;31.58;38.01;96341.28;5020825;28;20544;-81
2023/07/13 08:27:08;;;;;;;2.70;1.40;;;;;;;32.23;36.23;96341.50;5031720;28;20450;-80
2023/07/13 08:29:33;;;;;;;4.07;1.30;;;;;;;32.28;36.13;96346.06;5002346;28;20041;-81
2023/07/13 08:31:59;;;;;;;5.28;2.90;;;;;;;32.71;34.10;96351.41;5035572;28;20031;-81
2023/07/13 08:34:25;;;;;;;3.78;1.50;;;;;;;32.51;32.49;96339.72;5046291;28;20028;-81
2023/07/13 08:36:50;;;;;;;3.47;1.02;;;;;;;33.23;32.88;96338.47;5003184;28;20148;-80
2023/07/13 08:39:16;;;;;;;2.53;1.05;;;;;;;32.20;33.38;96341.28;5011930;28;20017;-81
2023/07/13 08:41:44;;;;;;;6.75;1.20;;;;;;;33.39;31.87;96344.44;5018443;28;20017;-81
2023/07/13 08:44:40;;;;;;;7.03;1.70;;;;;;;32.69;31.44;96340.78;5020045;28;20032;-81
2023/07/13 08:47:06;;;;;;;2.83;1.48;;;;;;;33.59;29.71;96337.81;5014700;28;20017;-81
2023/07/13 08:49:33;;;;;;;3.42;1.27;;;;;;;32.76;30.80;96343.94;5030661;28;20024;-80
2023/07/13 08:52:06;;;;;;;6.47;1.42;;;;;;;32.36;30.66;96346.22;5048047;28;20028;-80
2023/07/13 08:54:39;;;;;;;2.83;1.05;;;;;;;32.91;30.32;96344.78;5018111;28;20487;-81
2023/07/13 08:57:14;;;;;;;3.15;1.40;;;;;;;33.57;29.29;96343.59;5044107;28;20430;-80
2023/07/13 08:59:40;;;;;;;5.40;1.67;;;;;;;32.51;30.82;96352.53;5018894;28;20379;-80
2023/07/13 09:02:45;;;;;;;4.18;1.30;;;;;;;33.01;30.13;96355.53;5027045;28;20016;-80
2023/07/13 09:05:16;;;;;;;2.38;1.10;;;;;;;33.85;30.14;96363.44;5011219;28;20040;-81
2023/07/13 09:08:12;;;;;;;2.45;1.10;;;;;;;33.91;28.08;96354.03;5027919;28;20104;-81
2023/07/13 09:10:45;;;;;;;5.05;1.48;;;;;;;34.66;28.23;96349.09;5014718;28;20372;-80
2023/07/13 09:13:40;;;;;;;6.82;2.03;;;;;;;34.62;28.45;96345.38;5008009;28;20056;-81
2023/07/13 09:16:07;;;;;;;3.70;1.40;;;;;;;33.56;29.43;96355.59;5012698;28;20108;-80
2023/07/13 09:18:37;;;;;;;5.72;1.60;;;;;;;35.03;27.40;96344.34;5031308;28;20024;-80
2023/07/13 09:21:17;;;;;;;3.95;1.25;;;;;;;34.85;28.49;96338.75;5019345;28;20024;-80
2023/07/13 09:23:43;;;;;;;6.00;1.50;;;;;;;34.21;29.44;96341.66;5012598;28;20021;-80
2023/07/13 09:26:22;;;;;;;4.20;1.30;;;;;;;33.88;30.20;96349.19;5026421;28;20048;-80
2023/07/13 09:28:56;;;;;;;6.55;1.83;;;;;;;33.46;30.31;96353.03;5026918;28;20387;-81
2023/07/13 09:31:45;;;;;;;2.38;1.38;;;;;;;33.89;29.15;96348.06;5028015;28;20095;-80
2023/07/13 09:34:12;;;;;;;5.55;1.42;;;;;;;35.47;28.51;96353.53;5023023;28;20104;-80
2023/07/13 09:36:38;;;;;;;4.63;1.67;;;;;;;34.46;27.88;96348.44;5015489;28;20124;-81
2023/07/13 09:39:21;;;;;;;3.15;1.30;;;;;;;36.01;27.33;96348.72;5028248;28;20178;-80
2023/07/13 09:42:03;;;;;;;2.95;1.20;;;;;;;35.64;28.18;96342.66;5025393;28;20017;-80
2023/07/13 09:44:38;;;;;;;4.00;1.50;;;;;;;34.31;28.20;96357.00;5026908;28;20028;-80
2023/07/13 09:47:16;;;;;;;3.88;1.50;;;;;;;35.55;25.88;96355.53;4998507;28;20033;-80
2023/07/13 09:49:43;;;;;;;3.25;1.10;;;;;;;33.07;27.96;96357.88;5024232;28;20017;-80
2023/07/13 09:52:15;;;;;;;3.22;1.30;;;;;;;35.27;26.42;96350.25;5033741;28;20021;-80
2023/07/13 09:54:48;;;;;;;4.43;1.30;;;;;;;34.86;27.33;96347.75;5025062;28;20061;-81
2023/07/13 09:57:25;;;;;;;2.83;1.20;;;;;;;33.32;26.73;96339.41;5007623;28;20025;-80
2023/07/13 09:59:53;;;;;;;5.93;1.25;;;;;;;34.79;27.34;96345.47;5028273;28;20413;-80
2023/07/13 10:02:28;;;;;;;3.10;1.00;;;;;;;34.01;28.69;96359.31;5027064;28;20112;-81
2023/07/13 10:05:10;;;;;;;2.88;1.40;;;;;;;35.62;26.34;96350.41;5008640;28;20056;-80
2023/07/13 10:07:44;;;;;;;3.60;1.25;;;;;;;33.95;27.73;96348.78;5009244;28;20029;-80
2023/07/13 10:10:21;;;;;;;4.13;1.45;;;;;;;34.22;26.70;96345.19;5044754;28;20035;-80
2023/07/13 10:12:47;;;;;;;5.72;1.20;;;;;;;35.29;26.06;96353.47;5027643;28;20022;-80
2023/07/13 10:15:25;;;;;;;5.80;1.40;;;;;;;34.57;26.95;96342.75;5007559;28;20431;-80
2023/07/13 10:17:57;;;;;;;3.45;1.08;;;;;;;34.70;27.27;96350.06;5023532;28;20056;-80
2023/07/13 10:20:24;;;;;;;4.95;1.17;;;;;;;34.19;28.21;96364.91;5007301;28;20032;-80
2023/07/13 10:23:04;;;;;;;3.55;1.20;;;;;;;34.69;27.01;96360.19;5020773;28;20029;-80
2023/07/13 10:25:34;;;;;;;5.70;1.48;;;;;;;35.48;25.00;96360.59;5023571;28;20055;-80
2023/07/13 10:28:25;;;;;;;6.03;1.55;;;;;;;35.87;26.47;96355.13;5006785;28;20057;-80
2023/07/13 10:30:54;;;;;;;5.95;1.80;;;;;;;34.94;26.33;96357.91;5034678;28;20082;-80
2023/07/13 10:33:21;;;;;;;4.65;1.15;;;;;;;33.60;27.77;96361.22;5020310;28;20387;-80
2023/07/13 10:35:50;;;;;;;4.40;1.55;;;;;;;33.08;28.66;96364.13;5024709;28;20122;-80
2023/07/13 10:38:23;;;;;;;2.45;1.25;;;;;;;34.82;26.97;96361.25;5022111;28;20471;-80
2023/07/13 10:41:03;;;;;;;;;;;;;;;33.53;28.62;96365.16;5018997;28;20021;-80
2023/07/13 10:43:32;;;;;;;4.15;1.40;;;;;;;33.86;28.25;96356.06;5047319;28;20467;-80
2023/07/13 10:46:08;;;;;;;5.63;1.80;;;;;;;34.23;27.16;96360.44;5009099;28;20123;-80
2023/07/13 10:48:36;;;;;;;4.13;1.10;;;;;;;34.35;27.37;96355.25;5027889;28;20502;-80
2023/07/13 10:51:14;;;;;;;4.18;1.67;;;;;;;34.18;27.31;96352.38;5028277;28;20060;-80
2023/07/13 10:53:40;;;;;;;3.20;1.35;;;;;;;33.79;27.07;96361.94;5007542;28;20029;-80
2023/07/13 10:56:22;;;;;;;3.95;1.23;;;;;;;33.82;27.41;96352.34;5009274;28;20086;-80
2023/07/13 10:59:12;;;;;;;7.38;1.48;;;;;;;34.06;27.48;96352.09;5021155;28;20449;-80
2023/07/13 11:01:58;;;;;;;4.80;1.75;;;;;;;33.49;27.04;96345.09;5044192;28;20531;-80
2023/07/13 11:04:38;;;;;;;3.25;1.10;;;;;;;33.33;28.06;96341.00;5010717;28;20018;-79
2023/07/13 11:07:18;;;;;;;4.85;1.20;;;;;;;33.47;27.67;96341.84;5003908;28;20443;-81
2023/07/13 11:09:50;;;;;;;3.33;1.30;;;;;;;33.64;26.05;96345.91;5010509;28;20025;-79
2023/07/13 11:12:18;;;;;;;7.45;1.27;;;;;;;33.29;27.11;96337.28;5031035;28;20040;-80
2023/07/13 11:15:06;;;;;;;4.03;1.20;;;;;;;34.72;26.18;96334.97;5029735;28;20060;-79
2023/07/13 11:17:32;;;;;;;5.47;1.38;;;;;;;34.13;27.23;96336.13;5011462;28;20029;-81
2023/07/13 11:20:12;;;;;;;5.85;1.90;;;;;;;34.44;27.26;96338.91;5010435;28;20709;-80
2023/07/13 11:22:47;;;;;;;5.95;1.30;;;;;;;33.90;27.41;96346.13;5016820;28;20040;-80
2023/07/13 11:25:29;;;;;;;2.72;1.30;;;;;;;34.66;25.87;96340.88;5031286;28;20017;-80
2023/07/13 11:28:25;;;;;;;2.55;1.10;;;;;;;34.94;25.79;96342.34;5021678;28;20037;-80
2023/07/13 11:30:56;;;;;;;6.22;1.58;;;;;;;34.29;26.53;96345.56;5028698;28;20047;-80
2023/07/13 11:33:37;;;;;;;3.45;1.50;;;;;;;34.29;26.23;96348.28;5014873;28;20025;-80
2023/07/13 11:36:16;;;;;;;3.90;1.48;;;;;;;32.58;26.57;96348.31;5030779;28;20116;-80
2023/07/13 11:38:44;;;;;;;5.07;1.48;;;;;;;32.42;27.24;96346.94;5030315;28;20098;-80